sensor_id;sensor_type;location;lat;lon;timestamp;pressure;altitude;pressure_sealevel;temperature;humidity
70027;BME280;57506;50.092;15.804;2022-10-15T00:01:41;98821.28;;;10.83;100.00
70027;BME280;57506;50.092;15.804;2022-10-15T00:04:07;98838.91;;;10.93;100.00
70027;BME280;57506;50.092;15.804;2022-10-15T00:06:32;98839.53;;;10.95;100.00
70027;BME280;57506;50.092;15.804;2022-10-15T00:08:58;98837.91;;;11.00;100.00
70027;BME280;57506;50.092;15.804;2022-10-15T00:11:26;98828.34;;;10.98;100.00
70027;BME280;57506;50.092;15.804;2022-10-15T00:13:53;98819.63;;;10.96;100.00
70027;BME280;57506;50.092;15.804;2022-10-15T00:16:22;98816.31;;;10.94;100.00
70027;BME280;57506;50.092;15.804;2022-10-15T00:18:48;98832.72;;;10.99;100.00
70027;BME280;57506;50.092;15.804;2022-10-15T00:21:15;98838.31;;;11.04;100.00
70027;BME280;57506;50.092;15.804;2022-10-15T00:23:41;98819.63;;;10.96;100.00
70027;BME280;57506;50.092;15.804;2022-10-15T00:26:16;98819.84;;;11.01;100.00
70027;BME280;57506;50.092;15.804;2022-10-15T00:28:42;98816.09;;;10.88;100.00
70027;BME280;57506;50.092;15.804;2022-10-15T00:31:18;98819.59;;;10.89;100.00
70027;BME280;57506;50.092;15.804;2022-10-15T00:33:45;98815.03;;;10.76;100.00
70027;BME280;57506;50.092;15.804;2022-10-15T00:36:14;98806.53;;;10.66;100.00
70027;BME280;57506;50.092;15.804;2022-10-15T00:38:40;98805.69;;;10.72;100.00
70027;BME280;57506;50.092;15.804;2022-10-15T00:41:07;98811.09;;;10.79;100.00
70027;BME280;57506;50.092;15.804;2022-10-15T00:43:51;98791.41;;;10.78;100.00
70027;BME280;57506;50.092;15.804;2022-10-15T00:48:43;98788.94;;;10.83;100.00
70027;BME280;57506;50.092;15.804;2022-10-15T00:51:10;98784.38;;;10.84;100.00
70027;BME280;57506;50.092;15.804;2022-10-15T00:53:36;98778.97;;;10.97;100.00
70027;BME280;57506;50.092;15.804;2022-10-15T00:56:02;98749.53;;;10.89;100.00
70027;BME280;57506;50.092;15.804;2022-10-15T00:58:30;98764.03;;;11.08;100.00
70027;BME280;57506;50.092;15.804;2022-10-15T01:00:56;98760.94;;;11.11;100.00
70027;BME280;57506;50.092;15.804;2022-10-15T01:03:23;98754.91;;;11.09;100.00
70027;BME280;57506;50.092;15.804;2022-10-15T01:05:50;98764.88;;;11.15;100.00
70027;BME280;57506;50.092;15.804;2022-10-15T01:08:16;98762.63;;;11.18;100.00
70027;BME280;57506;50.092;15.804;2022-10-15T01:13:37;98766.53;;;11.22;100.00
70027;BME280;57506;50.092;15.804;2022-10-15T01:18:46;98767.81;;;11.20;100.00
70027;BME280;57506;50.092;15.804;2022-10-15T01:21:19;98765.91;;;11.14;100.00
70027;BME280;57506;50.092;15.804;2022-10-15T01:24:40;98755.13;;;11.14;100.00
70027;BME280;57506;50.092;15.804;2022-10-15T01:27:30;98751.59;;;11.13;100.00
70027;BME280;57506;50.092;15.804;2022-10-15T01:30:19;98755.75;;;11.22;100.00
70027;BME280;57506;50.092;15.804;2022-10-15T01:33:11;98757.22;;;11.18;100.00
70027;BME280;57506;50.092;15.804;2022-10-15T01:35:50;98743.72;;;11.18;100.00
70027;BME280;57506;50.092;15.804;2022-10-15T01:41:12;98737.72;;;11.16;100.00
70027;BME280;57506;50.092;15.804;2022-10-15T01:46:20;98721.72;;;11.21;100.00
70027;BME280;57506;50.092;15.804;2022-10-15T01:48:51;98705.16;;;11.18;100.00
70027;BME280;57506;50.092;15.804;2022-10-15T01:51:19;98698.09;;;11.17;100.00
70027;BME280;57506;50.092;15.804;2022-10-15T01:53:48;98709.25;;;11.27;100.00
70027;BME280;57506;50.092;15.804;2022-10-15T01:56:18;98688.34;;;11.16;100.00
70027;BME280;57506;50.092;15.804;2022-10-15T01:58:46;98720.06;;;11.20;100.00
70027;BME280;57506;50.092;15.804;2022-10-15T02:01:14;98691.88;;;11.10;100.00
70027;BME280;57506;50.092;15.804;2022-10-15T02:03:51;98695.56;;;11.22;100.00
70027;BME280;57506;50.092;15.804;2022-10-15T02:06:28;98691.22;;;11.21;100.00
70027;BME280;57506;50.092;15.804;2022-10-15T02:09:24;98681.50;;;11.20;100.00
70027;BME280;57506;50.092;15.804;2022-10-15T02:12:10;98680.22;;;11.22;100.00
70027;BME280;57506;50.092;15.804;2022-10-15T02:14:52;98685.00;;;11.27;100.00
70027;BME280;57506;50.092;15.804;2022-10-15T02:17:40;98684.16;;;11.33;100.00
70027;BME280;57506;50.092;15.804;2022-10-15T02:20:15;98683.75;;;11.30;100.00
70027;BME280;57506;50.092;15.804;2022-10-15T02:22:49;98687.06;;;11.32;100.00
70027;BME280;57506;50.092;15.804;2022-10-15T02:25:21;98679.38;;;11.29;100.00
70027;BME280;57506;50.092;15.804;2022-10-15T02:27:49;98686.44;;;11.30;100.00
70027;BME280;57506;50.092;15.804;2022-10-15T02:30:16;98679.38;;;11.22;100.00
70027;BME280;57506;50.092;15.804;2022-10-15T02:32:44;98677.97;;;11.19;100.00
70027;BME280;57506;50.092;15.804;2022-10-15T02:35:12;98664.88;;;11.23;100.00
70027;BME280;57506;50.092;15.804;2022-10-15T02:37:42;98662.63;;;11.20;100.00
70027;BME280;57506;50.092;15.804;2022-10-15T02:40:09;98669.44;;;11.22;100.00
70027;BME280;57506;50.092;15.804;2022-10-15T02:42:35;98659.91;;;11.13;100.00
70027;BME280;57506;50.092;15.804;2022-10-15T02:45:00;98657.00;;;11.15;100.00
70027;BME280;57506;50.092;15.804;2022-10-15T02:47:26;98660.97;;;11.19;100.00
70027;BME280;57506;50.092;15.804;2022-10-15T02:49:51;98665.31;;;11.20;100.00
70027;BME280;57506;50.092;15.804;2022-10-15T02:52:17;98650.78;;;11.14;100.00
70027;BME280;57506;50.092;15.804;2022-10-15T02:54:43;98652.81;;;11.26;100.00
70027;BME280;57506;50.092;15.804;2022-10-15T02:57:09;98639.13;;;11.20;100.00
70027;BME280;57506;50.092;15.804;2022-10-15T02:59:34;98632.94;;;11.20;100.00
70027;BME280;57506;50.092;15.804;2022-10-15T03:01:59;98640.38;;;11.31;100.00
70027;BME280;57506;50.092;15.804;2022-10-15T03:04:25;98646.41;;;11.33;100.00
70027;BME280;57506;50.092;15.804;2022-10-15T03:06:50;98645.16;;;11.29;100.00
70027;BME280;57506;50.092;15.804;2022-10-15T03:09:16;98637.06;;;11.29;100.00
70027;BME280;57506;50.092;15.804;2022-10-15T03:11:41;98637.06;;;11.36;100.00
70027;BME280;57506;50.092;15.804;2022-10-15T03:14:07;98637.06;;;11.36;100.00
70027;BME280;57506;50.092;15.804;2022-10-15T03:16:32;98639.09;;;11.47;100.00
70027;BME280;57506;50.092;15.804;2022-10-15T03:18:58;98644.22;;;11.55;100.00
70027;BME280;57506;50.092;15.804;2022-10-15T03:21:23;98635.13;;;11.49;100.00
70027;BME280;57506;50.092;15.804;2022-10-15T03:23:49;98634.47;;;11.61;100.00
70027;BME280;57506;50.092;15.804;2022-10-15T03:26:14;98633.63;;;11.60;100.00
70027;BME280;57506;50.092;15.804;2022-10-15T03:28:40;98640.47;;;11.63;100.00
70027;BME280;57506;50.092;15.804;2022-10-15T03:31:05;98631.53;;;11.69;100.00
70027;BME280;57506;50.092;15.804;2022-10-15T03:33:31;98643.56;;;11.66;100.00
70027;BME280;57506;50.092;15.804;2022-10-15T03:35:56;98629.06;;;11.61;100.00
70027;BME280;57506;50.092;15.804;2022-10-15T03:38:22;98629.00;;;11.74;100.00
70027;BME280;57506;50.092;15.804;2022-10-15T03:40:48;98626.16;;;11.62;100.00
70027;BME280;57506;50.092;15.804;2022-10-15T03:43:13;98633.56;;;11.73;100.00
70027;BME280;57506;50.092;15.804;2022-10-15T03:45:39;98648.72;;;11.81;100.00
70027;BME280;57506;50.092;15.804;2022-10-15T03:48:05;98641.81;;;11.91;100.00
70027;BME280;57506;50.092;15.804;2022-10-15T03:50:30;98626.53;;;11.79;100.00
70027;BME280;57506;50.092;15.804;2022-10-15T03:52:56;98617.84;;;11.64;100.00
70027;BME280;57506;50.092;15.804;2022-10-15T03:55:22;98624.03;;;11.71;100.00
70027;BME280;57506;50.092;15.804;2022-10-15T03:57:47;98631.91;;;11.79;100.00
70027;BME280;57506;50.092;15.804;2022-10-15T04:00:13;98613.22;;;11.71;100.00
70027;BME280;57506;50.092;15.804;2022-10-15T04:02:39;98625.06;;;11.76;100.00
70027;BME280;57506;50.092;15.804;2022-10-15T04:05:05;98624.63;;;11.73;100.00
70027;BME280;57506;50.092;15.804;2022-10-15T04:07:30;98617.81;;;11.77;100.00
70027;BME280;57506;50.092;15.804;2022-10-15T04:09:56;98625.47;;;11.80;100.00
70027;BME280;57506;50.092;15.804;2022-10-15T04:12:21;98625.91;;;11.77;100.00
70027;BME280;57506;50.092;15.804;2022-10-15T04:14:47;98635.63;;;11.84;100.00
70027;BME280;57506;50.092;15.804;2022-10-15T04:17:12;98625.22;;;11.88;100.00
70027;BME280;57506;50.092;15.804;2022-10-15T04:19:38;98638.66;;;12.01;100.00
70027;BME280;57506;50.092;15.804;2022-10-15T04:22:03;98634.72;;;11.97;100.00
70027;BME280;57506;50.092;15.804;2022-10-15T04:24:29;98621.88;;;11.93;100.00
70027;BME280;57506;50.092;15.804;2022-10-15T04:26:54;98620.28;;;11.85;100.00
70027;BME280;57506;50.092;15.804;2022-10-15T04:29:20;98632.03;;;11.97;100.00
70027;BME280;57506;50.092;15.804;2022-10-15T04:31:46;98626.22;;;11.94;100.00
70027;BME280;57506;50.092;15.804;2022-10-15T04:34:11;98621.13;;;11.79;100.00
70027;BME280;57506;50.092;15.804;2022-10-15T04:36:37;98632.66;;;11.93;100.00
70027;BME280;57506;50.092;15.804;2022-10-15T04:39:03;98632.25;;;11.96;100.00
70027;BME280;57506;50.092;15.804;2022-10-15T04:41:29;98628.44;;;12.03;100.00
70027;BME280;57506;50.092;15.804;2022-10-15T04:43:56;98634.31;;;12.00;100.00
70027;BME280;57506;50.092;15.804;2022-10-15T04:46:22;98616.03;;;11.96;100.00
70027;BME280;57506;50.092;15.804;2022-10-15T04:48:47;98621.88;;;11.93;100.00
70027;BME280;57506;50.092;15.804;2022-10-15T04:51:15;98611.09;;;11.86;100.00
70027;BME280;57506;50.092;15.804;2022-10-15T04:53:41;98617.91;;;11.95;100.00
70027;BME280;57506;50.092;15.804;2022-10-15T04:56:10;98597.78;;;11.91;100.00
70027;BME280;57506;50.092;15.804;2022-10-15T04:58:38;98612.31;;;11.90;100.00
70027;BME280;57506;50.092;15.804;2022-10-15T05:01:06;98611.06;;;11.93;100.00
70027;BME280;57506;50.092;15.804;2022-10-15T05:03:33;98599.88;;;11.89;100.00
70027;BME280;57506;50.092;15.804;2022-10-15T05:06:04;98609.41;;;11.91;100.00
70027;BME280;57506;50.092;15.804;2022-10-15T05:08:31;98613.56;;;11.94;100.00
70027;BME280;57506;50.092;15.804;2022-10-15T05:11:04;98615.84;;;11.90;100.00
70027;BME280;57506;50.092;15.804;2022-10-15T05:13:30;98620.00;;;11.93;100.00
70027;BME280;57506;50.092;15.804;2022-10-15T05:15:56;98605.09;;;11.84;100.00
70027;BME280;57506;50.092;15.804;2022-10-15T05:18:22;98618.97;;;11.94;100.00
70027;BME280;57506;50.092;15.804;2022-10-15T05:20:48;98600.91;;;11.88;100.00
70027;BME280;57506;50.092;15.804;2022-10-15T05:23:14;98604.22;;;11.90;100.00
70027;BME280;57506;50.092;15.804;2022-10-15T05:25:39;98614.16;;;11.96;100.00
70027;BME280;57506;50.092;15.804;2022-10-15T05:28:05;98618.09;;;12.00;100.00
70027;BME280;57506;50.092;15.804;2022-10-15T05:30:31;98613.69;;;12.06;100.00
70027;BME280;57506;50.092;15.804;2022-10-15T05:32:58;98615.97;;;12.02;100.00
70027;BME280;57506;50.092;15.804;2022-10-15T05:35:23;98621.38;;;12.02;100.00
70027;BME280;57506;50.092;15.804;2022-10-15T05:37:50;98638.22;;;12.04;100.00
70027;BME280;57506;50.092;15.804;2022-10-15T05:40:15;98634.72;;;11.97;100.00
70027;BME280;57506;50.092;15.804;2022-10-15T05:42:41;98625.53;;;12.05;100.00
70027;BME280;57506;50.092;15.804;2022-10-15T05:45:07;98629.44;;;12.15;100.00
70027;BME280;57506;50.092;15.804;2022-10-15T05:47:32;98647.06;;;12.18;100.00
70027;BME280;57506;50.092;15.804;2022-10-15T05:49:58;98646.69;;;12.14;100.00
70027;BME280;57506;50.092;15.804;2022-10-15T05:52:23;98648.72;;;12.19;100.00
70027;BME280;57506;50.092;15.804;2022-10-15T05:54:49;98646.19;;;12.24;100.00
70027;BME280;57506;50.092;15.804;2022-10-15T05:57:14;98653.69;;;12.22;100.00
70027;BME280;57506;50.092;15.804;2022-10-15T05:59:40;98653.91;;;12.20;100.00
70027;BME280;57506;50.092;15.804;2022-10-15T06:02:05;98634.16;;;12.20;100.00
70027;BME280;57506;50.092;15.804;2022-10-15T06:04:31;98641.22;;;12.21;100.00
70027;BME280;57506;50.092;15.804;2022-10-15T06:06:57;98641.66;;;12.18;100.00
70027;BME280;57506;50.092;15.804;2022-10-15T06:09:23;98640.59;;;12.19;100.00
70027;BME280;57506;50.092;15.804;2022-10-15T06:11:49;98643.09;;;12.20;100.00
70027;BME280;57506;50.092;15.804;2022-10-15T06:14:15;98650.00;;;12.16;100.00
70027;BME280;57506;50.092;15.804;2022-10-15T06:16:40;98640.84;;;12.17;100.00
70027;BME280;57506;50.092;15.804;2022-10-15T06:19:06;98636.31;;;12.11;100.00
70027;BME280;57506;50.092;15.804;2022-10-15T06:21:31;98644.97;;;12.20;100.00
70027;BME280;57506;50.092;15.804;2022-10-15T06:23:57;98634.66;;;12.10;100.00
70027;BME280;57506;50.092;15.804;2022-10-15T06:26:23;98639.13;;;12.23;100.00
70027;BME280;57506;50.092;15.804;2022-10-15T06:28:48;98635.19;;;12.19;100.00
70027;BME280;57506;50.092;15.804;2022-10-15T06:31:14;98639.97;;;12.23;100.00
70027;BME280;57506;50.092;15.804;2022-10-15T06:33:40;98641.19;;;12.27;100.00
70027;BME280;57506;50.092;15.804;2022-10-15T06:36:07;98638.69;;;12.26;100.00
70027;BME280;57506;50.092;15.804;2022-10-15T06:38:33;98642.63;;;12.30;100.00
70027;BME280;57506;50.092;15.804;2022-10-15T06:40:59;98642.78;;;12.35;100.00
70027;BME280;57506;50.092;15.804;2022-10-15T06:43:25;98649.41;;;12.39;100.00
70027;BME280;57506;50.092;15.804;2022-10-15T06:45:50;98654.78;;;12.46;100.00
70027;BME280;57506;50.092;15.804;2022-10-15T06:48:16;98653.31;;;12.50;100.00
70027;BME280;57506;50.092;15.804;2022-10-15T06:50:42;98660.63;;;12.43;100.00
70027;BME280;57506;50.092;15.804;2022-10-15T06:53:08;98665.16;;;12.49;100.00
70027;BME280;57506;50.092;15.804;2022-10-15T06:55:34;98677.34;;;12.58;100.00
70027;BME280;57506;50.092;15.804;2022-10-15T06:58:00;98661.47;;;12.37;100.00
70027;BME280;57506;50.092;15.804;2022-10-15T07:00:26;98662.72;;;12.41;100.00
70027;BME280;57506;50.092;15.804;2022-10-15T07:02:51;98662.94;;;12.39;100.00
70027;BME280;57506;50.092;15.804;2022-10-15T07:05:18;98674.38;;;12.35;100.00
70027;BME280;57506;50.092;15.804;2022-10-15T07:07:54;98683.91;;;12.44;100.00
70027;BME280;57506;50.092;15.804;2022-10-15T07:10:20;98672.88;;;12.45;100.00
70027;BME280;57506;50.092;15.804;2022-10-15T07:12:46;98680.97;;;12.45;100.00
70027;BME280;57506;50.092;15.804;2022-10-15T07:15:12;98677.22;;;12.46;100.00
70027;BME280;57506;50.092;15.804;2022-10-15T07:17:38;98665.81;;;12.44;100.00
70027;BME280;57506;50.092;15.804;2022-10-15T07:20:05;98690.03;;;12.57;100.00
70027;BME280;57506;50.092;15.804;2022-10-15T07:22:30;98679.88;;;12.53;100.00
70027;BME280;57506;50.092;15.804;2022-10-15T07:24:56;98692.75;;;12.57;100.00
70027;BME280;57506;50.092;15.804;2022-10-15T07:27:21;98691.25;;;12.61;100.00
70027;BME280;57506;50.092;15.804;2022-10-15T07:29:47;98678.78;;;12.60;100.00
70027;BME280;57506;50.092;15.804;2022-10-15T07:32:13;98685.44;;;12.65;100.00
70027;BME280;57506;50.092;15.804;2022-10-15T07:34:39;98680.13;;;12.76;100.00
70027;BME280;57506;50.092;15.804;2022-10-15T07:37:04;98681.13;;;12.82;100.00
70027;BME280;57506;50.092;15.804;2022-10-15T07:39:30;98672.41;;;12.80;100.00
70027;BME280;57506;50.092;15.804;2022-10-15T07:41:55;98662.56;;;12.85;100.00
70027;BME280;57506;50.092;15.804;2022-10-15T07:44:21;98680.50;;;13.05;100.00
70027;BME280;57506;50.092;15.804;2022-10-15T07:46:46;98690.72;;;13.03;100.00
70027;BME280;57506;50.092;15.804;2022-10-15T07:49:13;98685.72;;;13.00;100.00
70027;BME280;57506;50.092;15.804;2022-10-15T07:51:40;98689.78;;;12.90;100.00
70027;BME280;57506;50.092;15.804;2022-10-15T07:54:06;98686.47;;;12.88;100.00
70027;BME280;57506;50.092;15.804;2022-10-15T07:56:32;98693.09;;;12.92;100.00
70027;BME280;57506;50.092;15.804;2022-10-15T07:58:57;98695.69;;;13.06;100.00
70027;BME280;57506;50.092;15.804;2022-10-15T08:01:23;98695.16;;;12.97;100.00
70027;BME280;57506;50.092;15.804;2022-10-15T08:03:48;98708.50;;;13.17;100.00
70027;BME280;57506;50.092;15.804;2022-10-15T08:06:14;98703.69;;;13.19;100.00
70027;BME280;57506;50.092;15.804;2022-10-15T08:08:40;98702.88;;;13.18;100.00
70027;BME280;57506;50.092;15.804;2022-10-15T08:11:16;98698.63;;;13.29;100.00
70027;BME280;57506;50.092;15.804;2022-10-15T08:13:42;98688.25;;;13.26;100.00
70027;BME280;57506;50.092;15.804;2022-10-15T08:16:09;98706.66;;;13.36;100.00
70027;BME280;57506;50.092;15.804;2022-10-15T08:18:35;98690.38;;;13.42;100.00
70027;BME280;57506;50.092;15.804;2022-10-15T08:21:03;98700.81;;;13.57;100.00
70027;BME280;57506;50.092;15.804;2022-10-15T08:23:28;98696.53;;;13.68;100.00
70027;BME280;57506;50.092;15.804;2022-10-15T08:25:56;98717.59;;;13.84;100.00
70027;BME280;57506;50.092;15.804;2022-10-15T08:28:22;98713.16;;;13.89;100.00
70027;BME280;57506;50.092;15.804;2022-10-15T08:30:48;98702.94;;;13.73;100.00
70027;BME280;57506;50.092;15.804;2022-10-15T08:33:13;98701.66;;;13.76;100.00
70027;BME280;57506;50.092;15.804;2022-10-15T08:35:43;98706.84;;;13.77;100.00
70027;BME280;57506;50.092;15.804;2022-10-15T08:38:09;98716.69;;;13.90;100.00
70027;BME280;57506;50.092;15.804;2022-10-15T08:40:35;98713.44;;;13.81;100.00
70027;BME280;57506;50.092;15.804;2022-10-15T08:43:01;98706.47;;;13.74;100.00
70027;BME280;57506;50.092;15.804;2022-10-15T08:45:35;98700.06;;;13.86;100.00
70027;BME280;57506;50.092;15.804;2022-10-15T08:48:05;98704.97;;;13.96;100.00
70027;BME280;57506;50.092;15.804;2022-10-15T08:53:18;98715.31;;;13.99;100.00
70027;BME280;57506;50.092;15.804;2022-10-15T08:55:48;98704.25;;;14.00;100.00
70027;BME280;57506;50.092;15.804;2022-10-15T08:58:22;98701.25;;;14.09;100.00
70027;BME280;57506;50.092;15.804;2022-10-15T09:00:55;98678.41;;;14.16;100.00
70027;BME280;57506;50.092;15.804;2022-10-15T09:06:22;98679.78;;;14.37;100.00
70027;BME280;57506;50.092;15.804;2022-10-15T09:09:10;98686.00;;;14.44;100.00
70027;BME280;57506;50.092;15.804;2022-10-15T09:14:15;98704.53;;;14.59;100.00
70027;BME280;57506;50.092;15.804;2022-10-15T09:16:45;98694.25;;;14.49;100.00
70027;BME280;57506;50.092;15.804;2022-10-15T09:19:18;98702.97;;;14.51;100.00
70027;BME280;57506;50.092;15.804;2022-10-15T09:21:49;98700.19;;;14.40;100.00
70027;BME280;57506;50.092;15.804;2022-10-15T09:24:21;98709.09;;;14.47;100.00
70027;BME280;57506;50.092;15.804;2022-10-15T09:29:31;98710.56;;;14.61;100.00
70027;BME280;57506;50.092;15.804;2022-10-15T09:35:14;98716.38;;;14.46;100.00
70027;BME280;57506;50.092;15.804;2022-10-15T09:38:05;98712.31;;;14.37;100.00
70027;BME280;57506;50.092;15.804;2022-10-15T09:43:30;98723.63;;;14.52;100.00
70027;BME280;57506;50.092;15.804;2022-10-15T09:46:00;98711.63;;;14.60;100.00
70027;BME280;57506;50.092;15.804;2022-10-15T09:48:27;98719.19;;;14.81;100.00
70027;BME280;57506;50.092;15.804;2022-10-15T09:50:59;98709.56;;;14.85;100.00
70027;BME280;57506;50.092;15.804;2022-10-15T09:53:58;98716.03;;;14.96;100.00
70027;BME280;57506;50.092;15.804;2022-10-15T09:56:32;98725.88;;;15.20;100.00
70027;BME280;57506;50.092;15.804;2022-10-15T09:59:00;98713.97;;;15.21;100.00
70027;BME280;57506;50.092;15.804;2022-10-15T10:01:31;98730.72;;;15.30;100.00
70027;BME280;57506;50.092;15.804;2022-10-15T10:06:43;98741.84;;;15.40;100.00
70027;BME280;57506;50.092;15.804;2022-10-15T10:09:15;98749.72;;;15.30;100.00
70027;BME280;57506;50.092;15.804;2022-10-15T10:11:53;98744.41;;;15.35;100.00
70027;BME280;57506;50.092;15.804;2022-10-15T10:14:26;98751.75;;;15.34;100.00
70027;BME280;57506;50.092;15.804;2022-10-15T10:17:07;98743.81;;;15.33;100.00
70027;BME280;57506;50.092;15.804;2022-10-15T10:19:32;98726.69;;;15.44;100.00
70027;BME280;57506;50.092;15.804;2022-10-15T10:22:16;98729.91;;;15.64;100.00
70027;BME280;57506;50.092;15.804;2022-10-15T10:24:43;98741.13;;;15.68;100.00
70027;BME280;57506;50.092;15.804;2022-10-15T10:27:28;98734.03;;;15.79;100.00
70027;BME280;57506;50.092;15.804;2022-10-15T10:29:59;98741.81;;;15.75;100.00
70027;BME280;57506;50.092;15.804;2022-10-15T10:32:31;98734.25;;;15.77;100.00
70027;BME280;57506;50.092;15.804;2022-10-15T10:34:59;98729.91;;;15.88;100.00
70027;BME280;57506;50.092;15.804;2022-10-15T10:37:27;98722.34;;;15.90;100.00
70027;BME280;57506;50.092;15.804;2022-10-15T10:39:58;98732.53;;;16.23;100.00
70027;BME280;57506;50.092;15.804;2022-10-15T10:42:34;98727.22;;;16.16;100.00
70027;BME280;57506;50.092;15.804;2022-10-15T10:45:28;98734.63;;;16.32;100.00
70027;BME280;57506;50.092;15.804;2022-10-15T10:47:54;98738.78;;;16.23;100.00
70027;BME280;57506;50.092;15.804;2022-10-15T10:50:27;98736.38;;;16.38;100.00
70027;BME280;57506;50.092;15.804;2022-10-15T10:52:53;98731.19;;;16.37;100.00
70027;BME280;57506;50.092;15.804;2022-10-15T10:55:22;98728.06;;;16.45;100.00
70027;BME280;57506;50.092;15.804;2022-10-15T10:57:55;98736.06;;;16.52;100.00
70027;BME280;57506;50.092;15.804;2022-10-15T11:00:27;98731.19;;;16.65;100.00
70027;BME280;57506;50.092;15.804;2022-10-15T11:02:55;98742.84;;;16.94;100.00
70027;BME280;57506;50.092;15.804;2022-10-15T11:05:30;98722.00;;;17.17;100.00
70027;BME280;57506;50.092;15.804;2022-10-15T11:10:42;98741.31;;;17.48;100.00
70027;BME280;57506;50.092;15.804;2022-10-15T11:15:48;98732.72;;;17.95;98.99
70027;BME280;57506;50.092;15.804;2022-10-15T11:18:24;98733.16;;;18.31;97.30
70027;BME280;57506;50.092;15.804;2022-10-15T11:29:10;98720.03;;;18.06;93.83
70027;BME280;57506;50.092;15.804;2022-10-15T11:46:07;98724.13;;;17.48;91.96
70027;BME280;57506;50.092;15.804;2022-10-15T11:49:00;98732.41;;;17.36;93.80
70027;BME280;57506;50.092;15.804;2022-10-15T11:54:53;98722.50;;;16.97;96.94
70027;BME280;57506;50.092;15.804;2022-10-15T11:57:26;98733.47;;;16.85;96.56
70027;BME280;57506;50.092;15.804;2022-10-15T12:02:41;98734.84;;;16.71;98.69
70027;BME280;57506;50.092;15.804;2022-10-15T12:05:07;98725.09;;;16.75;98.58
70027;BME280;57506;50.092;15.804;2022-10-15T12:07:46;98724.50;;;16.73;98.71
70027;BME280;57506;50.092;15.804;2022-10-15T12:10:26;98727.59;;;16.93;98.08
70027;BME280;57506;50.092;15.804;2022-10-15T12:13:08;98729.25;;;16.94;98.58
70027;BME280;57506;50.092;15.804;2022-10-15T12:18:34;98739.69;;;16.69;100.00
70027;BME280;57506;50.092;15.804;2022-10-15T12:21:03;98723.38;;;16.57;100.00
70027;BME280;57506;50.092;15.804;2022-10-15T12:28:49;98721.06;;;16.49;100.00
70027;BME280;57506;50.092;15.804;2022-10-15T12:31:16;98727.28;;;16.33;100.00
70027;BME280;57506;50.092;15.804;2022-10-15T12:33:53;98741.59;;;16.28;100.00
70027;BME280;57506;50.092;15.804;2022-10-15T12:36:25;98740.63;;;16.34;100.00
70027;BME280;57506;50.092;15.804;2022-10-15T12:39:23;98725.22;;;16.40;100.00
70027;BME280;57506;50.092;15.804;2022-10-15T12:41:49;98740.81;;;16.44;100.00
70027;BME280;57506;50.092;15.804;2022-10-15T12:46:46;98742.06;;;16.25;100.00
70027;BME280;57506;50.092;15.804;2022-10-15T12:52:00;98742.06;;;15.85;100.00
70027;BME280;57506;50.092;15.804;2022-10-15T12:54:41;98739.09;;;15.75;100.00
70027;BME280;57506;50.092;15.804;2022-10-15T13:02:51;98729.91;;;15.41;100.00
70027;BME280;57506;50.092;15.804;2022-10-15T13:05:27;98736.63;;;15.50;100.00
70027;BME280;57506;50.092;15.804;2022-10-15T13:07:54;98730.47;;;15.43;100.00
70027;BME280;57506;50.092;15.804;2022-10-15T13:10:44;98737.91;;;15.48;100.00
70027;BME280;57506;50.092;15.804;2022-10-15T13:13:14;98737.56;;;15.44;100.00
70027;BME280;57506;50.092;15.804;2022-10-15T13:15:41;98733.19;;;15.43;100.00
70027;BME280;57506;50.092;15.804;2022-10-15T13:18:12;98734.63;;;15.46;100.00
70027;BME280;57506;50.092;15.804;2022-10-15T13:20:41;98738.97;;;15.47;100.00
70027;BME280;57506;50.092;15.804;2022-10-15T13:23:09;98734.75;;;15.51;100.00
70027;BME280;57506;50.092;15.804;2022-10-15T13:25:35;98728.72;;;15.49;100.00
70027;BME280;57506;50.092;15.804;2022-10-15T13:28:00;98716.22;;;15.36;100.00
70027;BME280;57506;50.092;15.804;2022-10-15T13:30:26;98716.06;;;15.43;100.00
70027;BME280;57506;50.092;15.804;2022-10-15T13:32:53;98715.75;;;15.39;100.00
70027;BME280;57506;50.092;15.804;2022-10-15T13:35:23;98715.28;;;15.42;100.00
70027;BME280;57506;50.092;15.804;2022-10-15T13:37:51;98729.78;;;15.36;100.00
70027;BME280;57506;50.092;15.804;2022-10-15T13:40:22;98715.97;;;15.26;100.00
70027;BME280;57506;50.092;15.804;2022-10-15T13:42:59;98713.84;;;15.28;100.00
70027;BME280;57506;50.092;15.804;2022-10-15T13:45:25;98719.25;;;15.28;100.00
70027;BME280;57506;50.092;15.804;2022-10-15T13:47:53;98735.22;;;15.36;100.00
70027;BME280;57506;50.092;15.804;2022-10-15T13:50:22;98731.31;;;15.32;100.00
70027;BME280;57506;50.092;15.804;2022-10-15T13:55:29;98744.56;;;15.40;100.00
70027;BME280;57506;50.092;15.804;2022-10-15T13:58:00;98736.59;;;15.27;100.00
70027;BME280;57506;50.092;15.804;2022-10-15T14:00:29;98741.47;;;15.25;100.00
70027;BME280;57506;50.092;15.804;2022-10-15T14:05:45;98739.56;;;15.14;100.00
70027;BME280;57506;50.092;15.804;2022-10-15T14:08:16;98731.31;;;15.09;100.00
70027;BME280;57506;50.092;15.804;2022-10-15T14:10:42;98736.72;;;15.09;100.00
70027;BME280;57506;50.092;15.804;2022-10-15T14:13:09;98736.22;;;15.00;100.00
70027;BME280;57506;50.092;15.804;2022-10-15T14:15:44;98745.44;;;15.11;100.00
70027;BME280;57506;50.092;15.804;2022-10-15T14:18:12;98738.84;;;15.07;100.00
70027;BME280;57506;50.092;15.804;2022-10-15T14:20:45;98736.38;;;15.05;100.00
70027;BME280;57506;50.092;15.804;2022-10-15T14:23:16;98725.16;;;15.01;100.00